createdAt,value
2023-04-25T00:00:10.275Z,101324.75
2023-04-25T00:02:37.282Z,101325.31
2023-04-25T00:05:04.596Z,101325.44
2023-04-25T00:07:32.148Z,101323.94
2023-04-25T00:09:59.244Z,101328.34
2023-04-25T00:12:25.793Z,101335.44
2023-04-25T00:14:52.332Z,101341.69
2023-04-25T00:17:20.260Z,101337.22
2023-04-25T00:19:47.356Z,101339.44
2023-04-25T00:22:14.350Z,101346.22
2023-04-25T00:24:40.868Z,101328.63
2023-04-25T00:27:07.383Z,101344.69
2023-04-25T00:29:34.394Z,101341.50
2023-04-25T00:32:01.533Z,101342.63
2023-04-25T00:34:28.109Z,101342.03
2023-04-25T00:36:54.702Z,101346.22
2023-04-25T00:39:21.223Z,101338.16
2023-04-25T00:41:48.138Z,101335.69
2023-04-25T00:44:17.912Z,101355.50
2023-04-25T00:46:44.823Z,101353.69
2023-04-25T00:49:16.322Z,101343.88
2023-04-25T00:51:45.002Z,101353.16
2023-04-25T00:54:15.269Z,101351.19
2023-04-25T00:56:42.415Z,101351.50
2023-04-25T00:59:10.817Z,101341.91
2023-04-25T01:01:38.765Z,101337.34
2023-04-25T01:04:05.806Z,101342.91
2023-04-25T01:06:32.968Z,101339.56
2023-04-25T01:09:00.466Z,101335.69
2023-04-25T01:11:26.972Z,101340.94
2023-04-25T01:13:53.549Z,101353.59
2023-04-25T01:16:20.137Z,101341.81
2023-04-25T01:18:48.224Z,101355.81
2023-04-25T01:21:14.746Z,101349.44
2023-04-25T01:23:42.247Z,101355.69
2023-04-25T01:26:10.878Z,101354.59
2023-04-25T01:28:38.317Z,101357.50
2023-04-25T01:31:06.787Z,101369.81
2023-04-25T01:33:33.639Z,101366.66
2023-04-25T01:36:00.228Z,101369.84
2023-04-25T01:38:26.942Z,101368.44
2023-04-25T01:40:54.730Z,101377.59
2023-04-25T01:43:21.428Z,101374.53
2023-04-25T01:45:50.055Z,101367.78
2023-04-25T01:48:16.763Z,101374.53
2023-04-25T01:50:44.915Z,101381.06
2023-04-25T01:53:14.068Z,101381.19
2023-04-25T01:55:40.640Z,101375.53
2023-04-25T01:58:14.021Z,101377.72
2023-04-25T02:00:41.798Z,101385.63
2023-04-25T02:03:09.504Z,101381.03
2023-04-25T02:05:40.215Z,101392.25
2023-04-25T02:08:08.216Z,101390.84
2023-04-25T02:10:35.503Z,101391.97
2023-04-25T02:13:02.135Z,101394.28
2023-04-25T02:15:28.685Z,101394.56
2023-04-25T02:17:55.181Z,101398.47
2023-04-25T02:20:24.102Z,101405.66
2023-04-25T02:22:50.676Z,101397.47
2023-04-25T02:25:18.070Z,101399.41
2023-04-25T02:27:44.638Z,101397.63
2023-04-25T02:30:11.629Z,101399.13
2023-04-25T02:32:38.377Z,101401.91
2023-04-25T02:35:05.414Z,101395.38
2023-04-25T02:37:32.815Z,101398.53
2023-04-25T02:39:59.348Z,101397.84
2023-04-25T02:42:25.887Z,101405.47
2023-04-25T02:44:52.346Z,101415.97
2023-04-25T02:47:19.019Z,101401.44
2023-04-25T02:49:47.009Z,101400.19
2023-04-25T02:52:13.848Z,101399.25
2023-04-25T02:54:41.620Z,101405.47
2023-04-25T02:57:08.690Z,101406.31
2023-04-25T02:59:35.486Z,101403.94
2023-04-25T03:02:02.702Z,101414.06
2023-04-25T03:04:29.234Z,101408.25
2023-04-25T03:06:56.072Z,101402.84
2023-04-25T03:09:22.759Z,101407.41
2023-04-25T03:11:49.218Z,101412.13
2023-04-25T03:14:16.171Z,101406.31
2023-04-25T03:16:42.750Z,101409.75
2023-04-25T03:19:09.364Z,101421.66
2023-04-25T03:21:36.551Z,101417.06
2023-04-25T03:24:05.349Z,101421.50
2023-04-25T03:26:32.101Z,101429.66
2023-04-25T03:28:58.592Z,101429.22
2023-04-25T03:31:25.367Z,101435.28
2023-04-25T03:33:52.035Z,101427.84
2023-04-25T03:36:18.693Z,101422.47
2023-04-25T03:38:45.223Z,101440.59
2023-04-25T03:41:11.704Z,101431.03
2023-04-25T03:43:38.172Z,101430.06
2023-04-25T03:46:04.869Z,101440.88
2023-04-25T03:48:31.412Z,101438.13
2023-04-25T03:50:58.030Z,101448.94
2023-04-25T03:53:24.532Z,101431.22
2023-04-25T03:55:51.384Z,101438.59
2023-04-25T03:58:17.905Z,101440.41
2023-04-25T04:00:44.356Z,101446.09
2023-04-25T04:03:12.114Z,101437.53
2023-04-25T04:05:41.537Z,101450.03
2023-04-25T04:08:08.273Z,101447.38
2023-04-25T04:10:34.793Z,101449.88
2023-04-25T04:13:01.228Z,101463.34
2023-04-25T04:15:27.719Z,101467.47
2023-04-25T04:17:55.142Z,101457.50
2023-04-25T04:20:21.672Z,101456.41
2023-04-25T04:22:48.136Z,101470.38
2023-04-25T04:25:14.694Z,101462.75
2023-04-25T04:27:41.597Z,101455.56
2023-04-25T04:30:09.270Z,101465.81
2023-04-25T04:32:38.566Z,101470.13
2023-04-25T04:35:07.479Z,101471.78
2023-04-25T04:37:34.543Z,101474.28
2023-04-25T04:40:06.706Z,101466.66
2023-04-25T04:42:33.281Z,101469.84
2023-04-25T04:44:59.760Z,101462.91
2023-04-25T04:47:26.922Z,101480.81
2023-04-25T04:49:53.496Z,101481.38
2023-04-25T04:52:19.955Z,101475.41
2023-04-25T04:54:46.757Z,101492.03
2023-04-25T04:57:13.282Z,101487.34
2023-04-25T04:59:39.713Z,101493.16
2023-04-25T05:02:06.231Z,101499.28
2023-04-25T05:04:32.771Z,101501.63
2023-04-25T05:06:59.498Z,101497.59
2023-04-25T05:09:26.864Z,101511.91
2023-04-25T05:11:53.379Z,101510.78
2023-04-25T05:14:19.829Z,101514.09
2023-04-25T05:16:46.346Z,101514.25
2023-04-25T05:19:12.861Z,101512.59
2023-04-25T05:21:39.290Z,101522.84
2023-04-25T05:24:06.280Z,101519.38
2023-04-25T05:26:32.772Z,101522.69
2023-04-25T05:28:59.237Z,101532.16
2023-04-25T05:31:25.713Z,101531.19
2023-04-25T05:33:52.781Z,101531.88
2023-04-25T05:36:20.608Z,101533.41
2023-04-25T05:38:47.058Z,101531.72
2023-04-25T05:41:13.581Z,101527.84
2023-04-25T05:43:40.213Z,101535.09
2023-04-25T05:46:06.869Z,101534.81
2023-04-25T05:48:33.348Z,101547.56
2023-04-25T05:50:59.821Z,101542.59
2023-04-25T05:53:26.281Z,101555.34
2023-04-25T05:55:52.757Z,101553.41
2023-04-25T05:58:19.224Z,101549.28
2023-04-25T06:00:45.782Z,101562.06
2023-04-25T06:03:12.623Z,101559.16
2023-04-25T06:05:39.305Z,101560.38
2023-04-25T06:08:05.887Z,101565.94
2023-04-25T06:10:32.328Z,101564.00
2023-04-25T06:12:58.766Z,101572.31
2023-04-25T06:15:28.585Z,101583.28
2023-04-25T06:17:55.981Z,101582.84
2023-04-25T06:20:24.960Z,101579.53
2023-04-25T06:22:55.229Z,101574.25
2023-04-25T06:25:22.059Z,101584.38
2023-04-25T06:27:48.734Z,101572.16
2023-04-25T06:30:16.236Z,101578.13
2023-04-25T06:32:42.863Z,101579.50
2023-04-25T06:35:09.846Z,101586.69
2023-04-25T06:37:36.406Z,101579.88
2023-04-25T06:40:03.466Z,101589.06
2023-04-25T06:42:29.950Z,101572.25
2023-04-25T06:44:56.847Z,101584.31
2023-04-25T06:47:23.317Z,101577.22
2023-04-25T06:49:50.359Z,101590.81
2023-04-25T06:52:18.916Z,101605.38
2023-04-25T06:54:46.104Z,101598.19
2023-04-25T06:57:12.660Z,101596.94
2023-04-25T06:59:39.120Z,101603.72
2023-04-25T07:02:06.920Z,101607.91
2023-04-25T07:04:33.614Z,101604.13
2023-04-25T07:07:01.911Z,101608.53
2023-04-25T07:09:28.473Z,101614.69
2023-04-25T07:11:55.009Z,101607.63
2023-04-25T07:14:21.521Z,101619.28
2023-04-25T07:16:48.132Z,101631.50
2023-04-25T07:19:14.719Z,101616.91
2023-04-25T07:21:41.263Z,101627.75
2023-04-25T07:24:07.847Z,101622.03
2023-04-25T07:26:34.389Z,101635.69
2023-04-25T07:29:00.870Z,101642.72
2023-04-25T07:31:27.938Z,101635.19
2023-04-25T07:33:54.610Z,101635.28
2023-04-25T07:36:21.944Z,101640.91
2023-04-25T07:38:48.626Z,101642.97
2023-04-25T07:41:15.264Z,101644.84
2023-04-25T07:43:41.728Z,101644.16
2023-04-25T07:46:08.276Z,101655.13
2023-04-25T07:48:34.904Z,101655.38
2023-04-25T07:51:01.453Z,101652.72
2023-04-25T07:53:27.964Z,101653.13
2023-04-25T07:55:54.591Z,101659.41
2023-04-25T07:58:23.652Z,101652.81
2023-04-25T08:00:50.878Z,101663.69
2023-04-25T08:03:17.553Z,101662.28
2023-04-25T08:05:44.524Z,101675.34
2023-04-25T08:08:11.465Z,101668.16
2023-04-25T08:10:37.971Z,101681.75
2023-04-25T08:13:04.458Z,101675.78
2023-04-25T08:15:31.226Z,101682.53
2023-04-25T08:17:57.728Z,101683.66
2023-04-25T08:20:24.168Z,101690.28
2023-04-25T08:22:50.673Z,101691.59
2023-04-25T08:25:17.149Z,101714.44
2023-04-25T08:27:44.298Z,101722.81
2023-04-25T08:30:11.204Z,101715.75
2023-04-25T08:32:40.827Z,101739.41
2023-04-25T08:35:07.851Z,101722.34
2023-04-25T08:37:34.426Z,101730.25
2023-04-25T08:40:00.938Z,101728.88
2023-04-25T08:42:29.870Z,101720.38
2023-04-25T08:44:56.509Z,101731.59
2023-04-25T08:47:24.894Z,101738.09
2023-04-25T08:49:54.526Z,101722.63
2023-04-25T08:52:25.583Z,101733.22
2023-04-25T08:54:52.512Z,101735.00
2023-04-25T08:57:19.347Z,101730.53
2023-04-25T08:59:47.832Z,101739.53
2023-04-25T09:02:16.815Z,101741.44
2023-04-25T09:04:45.658Z,101760.50
2023-04-25T09:07:12.502Z,101764.97
2023-04-25T09:09:39.245Z,101751.44
2023-04-25T09:12:06.276Z,101765.19
2023-04-25T09:14:32.969Z,101762.94
2023-04-25T09:17:01.619Z,101756.13
2023-04-25T09:19:39.759Z,101760.13
2023-04-25T09:22:08.191Z,101751.56
2023-04-25T09:24:44.371Z,101763.09
2023-04-25T09:27:12.826Z,101782.31
2023-04-25T09:29:41.962Z,101766.00
2023-04-25T09:32:23.369Z,101776.91
2023-04-25T09:34:57.641Z,101786.22
2023-04-25T09:37:29.724Z,101787.94
2023-04-25T09:40:03.618Z,101779.63
2023-04-25T09:42:32.421Z,101789.53
2023-04-25T09:45:00.016Z,101800.59
2023-04-25T09:47:27.783Z,101804.47
2023-04-25T09:49:55.959Z,101811.69
2023-04-25T09:52:25.785Z,101818.00
2023-04-25T09:54:53.461Z,101831.81
2023-04-25T09:57:26.857Z,101836.59
2023-04-25T09:59:55.349Z,101837.41
2023-04-25T10:02:27.110Z,101836.31
2023-04-25T10:04:57.466Z,101843.09
2023-04-25T10:07:29.559Z,101838.72
2023-04-25T10:10:04.005Z,101825.78
2023-04-25T10:12:34.986Z,101829.16
2023-04-25T10:15:02.642Z,101832.78
2023-04-25T10:17:29.522Z,101836.03
2023-04-25T10:19:56.268Z,101829.91
2023-04-25T10:22:45.088Z,101832.69
2023-04-25T10:25:12.763Z,101819.75
2023-04-25T10:27:40.561Z,101822.22
2023-04-25T10:30:16.273Z,101833.97
2023-04-25T10:32:44.078Z,101830.34
2023-04-25T10:35:18.966Z,101832.63
2023-04-25T10:38:06.036Z,101816.91
2023-04-25T10:40:33.999Z,101808.81
2023-04-25T10:43:38.493Z,101825.22
2023-04-25T10:46:28.703Z,101823.66
2023-04-25T10:49:00.329Z,101813.66
2023-04-25T10:51:47.368Z,101814.03
2023-04-25T10:54:21.203Z,101815.75
2023-04-25T10:56:49.755Z,101816.38
2023-04-25T10:59:18.016Z,101824.72
2023-04-25T11:01:52.469Z,101820.25
2023-04-25T11:04:26.810Z,101828.75
2023-04-25T11:07:07.507Z,101843.66
2023-04-25T11:09:41.158Z,101827.88
2023-04-25T11:12:12.871Z,101855.91
2023-04-25T11:17:07.491Z,101859.13
2023-04-25T11:19:34.000Z,101869.50
2023-04-25T11:22:01.593Z,101878.56
2023-04-25T11:24:32.494Z,101872.88
2023-04-25T11:26:59.965Z,101883.13
2023-04-25T11:29:31.514Z,101875.66
2023-04-25T11:31:59.073Z,101882.78
2023-04-25T11:34:27.054Z,101878.34
2023-04-25T11:36:54.310Z,101876.41
2023-04-25T11:39:21.321Z,101881.63
2023-04-25T11:41:48.343Z,101879.97
2023-04-25T11:44:18.518Z,101870.47
2023-04-25T11:46:45.759Z,101889.25
2023-04-25T11:49:12.966Z,101890.69
2023-04-25T11:51:47.551Z,101883.03
2023-04-25T11:54:14.470Z,101883.25
2023-04-25T11:56:45.809Z,101882.66
2023-04-25T11:59:13.423Z,101882.75
2023-04-25T12:01:42.029Z,101879.16
2023-04-25T12:04:15.845Z,101868.09
2023-04-25T12:06:44.059Z,101874.97
2023-04-25T12:09:14.099Z,101865.78
2023-04-25T12:11:44.914Z,101864.03
2023-04-25T12:14:12.101Z,101879.84
2023-04-25T12:16:46.317Z,101885.00
2023-04-25T12:19:17.816Z,101883.59
2023-04-25T12:21:57.283Z,101889.56
2023-04-25T12:24:26.679Z,101895.44
2023-04-25T12:27:00.799Z,101910.44
2023-04-25T12:29:34.588Z,101900.44
2023-04-25T12:32:05.430Z,101896.41
2023-04-25T12:34:33.398Z,101905.09
2023-04-25T12:36:59.916Z,101898.56
2023-04-25T12:39:26.834Z,101909.06
2023-04-25T12:41:54.933Z,101908.81
2023-04-25T12:44:22.233Z,101901.81
2023-04-25T12:46:49.544Z,101894.22
2023-04-25T12:49:19.400Z,101898.09
2023-04-25T12:51:46.275Z,101902.59
2023-04-25T12:54:12.918Z,101904.06
2023-04-25T12:56:39.687Z,101894.94
2023-04-25T12:59:06.181Z,101877.16
2023-04-25T13:01:34.717Z,101884.22
2023-04-25T13:04:02.989Z,101882.28
2023-04-25T13:06:31.380Z,101887.25
2023-04-25T13:08:57.946Z,101875.41
2023-04-25T13:11:24.414Z,101886.50
2023-04-25T13:13:51.225Z,101905.56
2023-04-25T13:16:18.569Z,101903.72
2023-04-25T13:18:45.039Z,101902.03
2023-04-25T13:21:14.528Z,101907.94
2023-04-25T13:23:42.750Z,101898.84
2023-04-25T13:26:09.536Z,101919.81
2023-04-25T13:28:36.097Z,101903.56
2023-04-25T13:31:02.622Z,101916.66
2023-04-25T13:33:29.889Z,101902.03
2023-04-25T13:35:58.068Z,101905.81
2023-04-25T13:38:26.972Z,101906.50
2023-04-25T13:40:54.325Z,101901.81
2023-04-25T13:43:22.848Z,101910.25
2023-04-25T13:45:50.322Z,101914.00
2023-04-25T13:48:17.021Z,101919.69
2023-04-25T13:50:43.501Z,101921.81
2023-04-25T13:53:10.044Z,101918.59
2023-04-25T13:55:37.869Z,101908.03
2023-04-25T13:58:10.981Z,101919.56
2023-04-25T14:00:39.969Z,101912.94
2023-04-25T14:03:08.837Z,101921.09
2023-04-25T14:05:39.094Z,101933.94
2023-04-25T14:08:10.542Z,101927.44
2023-04-25T14:10:38.048Z,101918.94
2023-04-25T14:13:05.638Z,101928.78
2023-04-25T14:15:35.632Z,101926.53
2023-04-25T14:18:02.834Z,101922.97
2023-04-25T14:20:29.828Z,101916.91
2023-04-25T14:22:57.097Z,101911.22
2023-04-25T14:25:24.493Z,101918.88
2023-04-25T14:27:51.325Z,101924.78
2023-04-25T14:30:19.266Z,101921.28
2023-04-25T14:32:46.409Z,101931.13
2023-04-25T14:35:13.690Z,101902.81
2023-04-25T14:37:40.478Z,101909.53
2023-04-25T14:40:11.239Z,101908.84
2023-04-25T14:42:38.066Z,101911.19
2023-04-25T14:45:08.218Z,101920.84
2023-04-25T14:47:35.262Z,101939.88
2023-04-25T14:50:02.713Z,101933.88
2023-04-25T14:52:29.442Z,101940.19
2023-04-25T14:54:56.003Z,101933.09
2023-04-25T14:57:22.631Z,101938.97
2023-04-25T14:59:49.103Z,101936.47
2023-04-25T15:02:15.664Z,101938.22
2023-04-25T15:04:42.763Z,101936.47
2023-04-25T15:07:09.676Z,101926.41
2023-04-25T15:09:36.159Z,101927.50
2023-04-25T15:12:03.124Z,101930.47
2023-04-25T15:14:29.881Z,101925.84
2023-04-25T15:16:56.631Z,101930.34
2023-04-25T15:19:23.303Z,101926.31
2023-04-25T15:21:50.035Z,101935.25
2023-04-25T15:24:17.184Z,101929.38
2023-04-25T15:26:43.777Z,101954.16
2023-04-25T15:29:10.680Z,101955.13
2023-04-25T15:31:37.238Z,101941.41
2023-04-25T15:34:03.860Z,101963.06
2023-04-25T15:36:32.180Z,101960.69
2023-04-25T15:38:58.628Z,101960.78
2023-04-25T15:41:26.374Z,101957.50
2023-04-25T15:43:53.646Z,101988.66
2023-04-25T15:46:21.070Z,101977.06
2023-04-25T15:48:47.817Z,101982.22
2023-04-25T15:51:15.819Z,101982.13
2023-04-25T15:53:42.314Z,101980.47
2023-04-25T15:56:08.872Z,101982.53
2023-04-25T15:58:36.221Z,101973.69
2023-04-25T16:01:05.092Z,101978.66
2023-04-25T16:03:35.443Z,101983.97
2023-04-25T16:06:03.147Z,101995.31
2023-04-25T16:08:29.960Z,101993.25
2023-04-25T16:10:57.339Z,101988.03
2023-04-25T16:13:23.879Z,101998.50
2023-04-25T16:15:50.547Z,102000.84
2023-04-25T16:18:17.292Z,101991.97
2023-04-25T16:20:44.528Z,101994.31
2023-04-25T16:23:10.947Z,101993.41
2023-04-25T16:25:37.390Z,101990.31
2023-04-25T16:28:03.878Z,101993.56
2023-04-25T16:30:30.520Z,101996.81
2023-04-25T16:32:57.712Z,101990.19
2023-04-25T16:35:24.671Z,102003.59
2023-04-25T16:37:51.218Z,102001.91
2023-04-25T16:40:17.753Z,102010.41
2023-04-25T16:42:44.233Z,102009.47
2023-04-25T16:45:11.472Z,102004.16
2023-04-25T16:47:38.013Z,102003.78
2023-04-25T16:50:05.063Z,102012.59
2023-04-25T16:52:31.690Z,101995.91
2023-04-25T16:54:58.149Z,101993.19
2023-04-25T16:57:24.581Z,102005.63
2023-04-25T16:59:52.046Z,101991.94
2023-04-25T17:02:18.645Z,102001.69
2023-04-25T17:04:45.238Z,101987.53
2023-04-25T17:07:11.734Z,102004.75
2023-04-25T17:09:38.939Z,101985.75
2023-04-25T17:12:05.906Z,102011.44
2023-04-25T17:14:35.324Z,102023.00
2023-04-25T17:17:01.943Z,102015.47
2023-04-25T17:19:28.944Z,102019.56
2023-04-25T17:21:55.841Z,102033.38
2023-04-25T17:24:22.381Z,102032.56
2023-04-25T17:26:49.072Z,102039.25
2023-04-25T17:29:15.836Z,102039.25
2023-04-25T17:31:42.692Z,102037.31
2023-04-25T17:34:09.884Z,102041.72
2023-04-25T17:36:36.472Z,102034.72
2023-04-25T17:39:06.348Z,102032.16
2023-04-25T17:41:33.020Z,102024.91
2023-04-25T17:43:59.640Z,102020.66
2023-04-25T17:46:27.453Z,102039.25
2023-04-25T17:48:54.391Z,102045.75
2023-04-25T17:51:21.239Z,102051.22
2023-04-25T17:53:48.020Z,102050.81
2023-04-25T17:56:25.954Z,102056.56
2023-04-25T17:58:54.200Z,102049.03
2023-04-25T18:01:21.385Z,102044.16
2023-04-25T18:03:49.870Z,102053.63
2023-04-25T18:06:16.911Z,102059.34
2023-04-25T18:08:44.675Z,102061.84
2023-04-25T18:11:11.936Z,102065.03
2023-04-25T18:13:39.093Z,102061.97
2023-04-25T18:16:06.127Z,102055.97
2023-04-25T18:18:34.600Z,102055.28
2023-04-25T18:21:03.921Z,102069.22
2023-04-25T18:23:32.464Z,102074.66
2023-04-25T18:25:58.933Z,102073.69
2023-04-25T18:28:25.702Z,102071.03
2023-04-25T18:30:52.183Z,102067.00
2023-04-25T18:33:18.682Z,102079.09
2023-04-25T18:35:55.535Z,102071.00
2023-04-25T18:38:35.486Z,102093.13
2023-04-25T18:43:44.374Z,102090.19
2023-04-25T18:46:11.049Z,102094.91
2023-04-25T18:48:37.964Z,102101.69
2023-04-25T18:51:05.592Z,102100.56
2023-04-25T18:53:32.407Z,102104.72
2023-04-25T18:55:58.882Z,102114.84
2023-04-25T18:58:25.909Z,102109.81
2023-04-25T19:00:52.757Z,102109.28
2023-04-25T19:03:19.492Z,102105.88
2023-04-25T19:05:46.115Z,102114.19
2023-04-25T19:08:12.594Z,102118.88
2023-04-25T19:10:39.156Z,102117.47
2023-04-25T19:13:06.474Z,102121.94
2023-04-25T19:15:33.505Z,102125.81
2023-04-25T19:18:00.106Z,102112.41
2023-04-25T19:20:27.449Z,102120.72
2023-04-25T19:22:54.600Z,102122.78
2023-04-25T19:25:21.120Z,102130.13
2023-04-25T19:27:47.665Z,102129.09
2023-04-25T19:30:14.558Z,102136.16
2023-04-25T19:32:41.153Z,102141.00
2023-04-25T19:35:11.346Z,102134.56
2023-04-25T19:37:39.073Z,102142.31
2023-04-25T19:40:07.398Z,102139.56
2023-04-25T19:42:33.938Z,102135.66
2023-04-25T19:45:00.428Z,102138.09
2023-04-25T19:47:28.007Z,102127.91
2023-04-25T19:49:54.548Z,102141.34
2023-04-25T19:52:21.079Z,102140.16
2023-04-25T19:54:47.552Z,102144.34
2023-04-25T19:57:14.122Z,102150.00
2023-04-25T19:59:40.747Z,102143.19
2023-04-25T20:02:10.612Z,102144.50
2023-04-25T20:04:38.616Z,102149.91
2023-04-25T20:07:05.162Z,102152.53
2023-04-25T20:09:31.953Z,102157.94
2023-04-25T20:11:58.437Z,102154.22
2023-04-25T20:14:25.120Z,102165.09
2023-04-25T20:16:51.634Z,102161.91
2023-04-25T20:19:18.141Z,102152.56
2023-04-25T20:21:44.628Z,102156.75
2023-04-25T20:24:11.908Z,102148.50
2023-04-25T20:26:38.581Z,102151.50
2023-04-25T20:29:06.049Z,102167.91
2023-04-25T20:31:34.288Z,102152.34
2023-04-25T20:34:00.908Z,102150.91
2023-04-25T20:36:27.516Z,102158.09
2023-04-25T20:38:54.699Z,102145.50
2023-04-25T20:41:21.455Z,102164.66
2023-04-25T20:43:48.183Z,102154.63
2023-04-25T20:46:16.152Z,102171.97
2023-04-25T20:48:42.715Z,102166.59
2023-04-25T20:51:09.227Z,102174.59
2023-04-25T20:53:35.745Z,102172.69
2023-04-25T20:56:02.695Z,102167.66
2023-04-25T20:58:29.171Z,102168.84
2023-04-25T21:00:56.526Z,102168.84
2023-04-25T21:03:23.147Z,102171.94
2023-04-25T21:05:49.768Z,102163.09
2023-04-25T21:08:16.708Z,102162.03
2023-04-25T21:10:43.238Z,102168.09
2023-04-25T21:13:09.721Z,102162.47
2023-04-25T21:15:36.216Z,102154.91
2023-04-25T21:18:02.774Z,102155.78
2023-04-25T21:20:29.365Z,102149.53
2023-04-25T21:22:55.847Z,102144.50
2023-04-25T21:25:31.641Z,102155.63
2023-04-25T21:27:59.124Z,102154.16
2023-04-25T21:30:26.515Z,102164.19
2023-04-25T21:32:53.521Z,102156.31
2023-04-25T21:35:21.901Z,102151.50
2023-04-25T21:37:48.653Z,102169.81
2023-04-25T21:40:15.447Z,102168.97
2023-04-25T21:42:42.664Z,102164.28
2023-04-25T21:45:10.036Z,102163.78
2023-04-25T21:47:36.885Z,102165.78
2023-04-25T21:50:04.333Z,102170.09
2023-04-25T21:52:31.764Z,102177.03
2023-04-25T21:54:58.230Z,102162.06
2023-04-25T21:57:24.790Z,102164.53
2023-04-25T21:59:51.236Z,102170.00
2023-04-25T22:02:17.861Z,102171.09
2023-04-25T22:04:47.150Z,102183.09
2023-04-25T22:07:14.539Z,102168.38
2023-04-25T22:09:53.760Z,102177.75
2023-04-25T22:12:22.864Z,102179.63
2023-04-25T22:14:50.201Z,102179.44
2023-04-25T22:17:17.585Z,102186.91
2023-04-25T22:19:44.606Z,102198.38
2023-04-25T22:22:11.432Z,102189.97
2023-04-25T22:24:38.773Z,102195.66
2023-04-25T22:27:05.329Z,102192.72
2023-04-25T22:29:31.755Z,102208.06
2023-04-25T22:31:58.482Z,102206.59
2023-04-25T22:34:25.026Z,102202.50
2023-04-25T22:36:51.490Z,102195.56
2023-04-25T22:39:19.261Z,102196.91
2023-04-25T22:41:46.381Z,102206.03
2023-04-25T22:44:12.924Z,102201.72
2023-04-25T22:46:39.535Z,102209.41
2023-04-25T22:49:06.034Z,102214.66
2023-04-25T22:51:33.184Z,102217.41
2023-04-25T22:54:00.569Z,102211.41
2023-04-25T22:56:30.343Z,102218.34
2023-04-25T22:58:57.132Z,102207.84
2023-04-25T23:01:24.981Z,102216.16
2023-04-25T23:03:51.669Z,102217.69
2023-04-25T23:06:18.857Z,102217.69
2023-04-25T23:08:45.503Z,102216.06
2023-04-25T23:11:12.468Z,102226.97
2023-04-25T23:13:39.380Z,102215.81
2023-04-25T23:16:10.735Z,102218.84
2023-04-25T23:18:39.114Z,102227.38
2023-04-25T23:21:09.276Z,102231.47
2023-04-25T23:23:36.350Z,102219.63
2023-04-25T23:26:10.593Z,102222.25
2023-04-25T23:28:42.024Z,102226.75
2023-04-25T23:31:09.811Z,102226.13
2023-04-25T23:33:36.498Z,102221.50
2023-04-25T23:36:03.673Z,102228.13
2023-04-25T23:38:30.256Z,102223.94
2023-04-25T23:40:56.805Z,102223.72
2023-04-25T23:43:23.349Z,102220.88
2023-04-25T23:45:50.018Z,102219.59
2023-04-25T23:48:16.798Z,102214.44
2023-04-25T23:50:43.242Z,102206.97
2023-04-25T23:53:09.971Z,102205.72
2023-04-25T23:55:36.682Z,102214.03
2023-04-25T23:58:03.695Z,102202.81
